X  Cerrar Datos meteorológicos de aviación METAR     LBPD Plovdiv International Airport
Temperatura
15°C Temperatura
15°C Punto de rocío
100% Humedad



Viento
3 KM/H
2 MPH
1 M/S
2 NUDO



Calma
N
Condiciones actuales

Parcialmente nublado Parcialmente nublado
Presión 1014.9 (hPa) - 29.97 (inHg)
Visibilidad 6 (milla) - 9.7 (km)
Aeropuerto
Código de aeropuerto LBPD

localidad: Plovdiv International Airport
Distancia: 14 (km)

Metar:
LBPD 191700Z AUTO VRB02KT 9999 FEW003/// SCT016/// OVC021/// 15/15 Q1015 NOSIG

Hora: 19-05-2024 20:00 EEST